Time;durP1;ratioP1;P1;durP2;ratioP2;P2;SDS_P1;SDS_P2;PMS_P1;PMS_P2;Temp;Humidity;BMP_temperature;BMP_pressure;BME280_temperature;BME280_humidity;BME280_pressure;Samples;Min_cycle;Max_cycle;Signal;HPM_P1;HPM_P2
2022/01/13 00:00:54;;;;;;;38.05;21.55;;;2.40;99.90;;;;;;5032286;28;20021;-88
2022/01/13 00:03:20;;;;;;;36.30;20.20;;;2.40;99.90;;;;;;5030059;28;20026;-88
2022/01/13 00:05:45;;;;;;;35.05;20.75;;;2.40;99.90;;;;;;5031161;28;20029;-88
2022/01/13 00:08:11;;;;;;;35.50;20.75;;;2.40;99.90;;;;;;5032588;28;20029;-88
2022/01/13 00:10:37;;;;;;;38.83;22.00;;;2.30;99.90;;;;;;5033454;28;20164;-88
2022/01/13 00:13:06;;;;;;;37.55;22.52;;;2.30;99.90;;;;;;5030106;28;20485;-89
2022/01/13 00:15:45;;;;;;;40.08;22.60;;;2.30;99.90;;;;;;5030179;28;20223;-88
2022/01/13 00:18:17;;;;;;;43.15;26.52;;;2.30;99.90;;;;;;5031765;28;20493;-88
2022/01/13 00:26:15;;;;;;;38.10;22.67;;;2.40;99.90;;;;;;5032820;28;20091;-88
2022/01/13 00:28:47;;;;;;;37.63;22.23;;;2.50;99.90;;;;;;5029877;28;20029;-88
2022/01/13 00:31:13;;;;;;;39.47;22.75;;;2.40;99.90;;;;;;5030925;28;20029;-89
2022/01/13 00:33:44;;;;;;;45.28;23.88;;;2.40;99.90;;;;;;5030588;28;20045;-88
2022/01/13 00:36:10;;;;;;;42.78;25.85;;;2.30;99.90;;;;;;5030416;28;20079;-88
2022/01/13 00:38:36;;;;;;;42.15;24.42;;;2.30;99.90;;;;;;5034364;28;20099;-88
2022/01/13 00:41:01;;;;;;;34.00;21.33;;;2.30;99.90;;;;;;5029242;28;20037;-88
2022/01/13 00:43:27;;;;;;;36.88;22.52;;;2.30;99.90;;;;;;5030750;28;20040;-88
2022/01/13 00:45:53;;;;;;;41.13;24.65;;;2.30;99.90;;;;;;5030792;28;20021;-88
2022/01/13 00:48:19;;;;;;;45.38;25.40;;;2.30;99.90;;;;;;5030697;28;20049;-88
2022/01/13 00:50:48;;;;;;;37.58;22.63;;;2.30;99.90;;;;;;5028928;28;20064;-88
2022/01/13 00:53:14;;;;;;;41.58;24.85;;;2.30;99.90;;;;;;5030618;28;20037;-88
2022/01/13 00:55:58;;;;;;;38.80;23.38;;;2.30;99.90;;;;;;5030284;28;20029;-88
2022/01/13 00:58:26;;;;;;;39.42;22.83;;;2.30;99.90;;;;;;5028880;28;20030;-89
2022/01/13 01:00:51;;;;;;;39.90;23.27;;;2.20;99.90;;;;;;5028815;28;20116;-88
2022/01/13 01:03:17;;;;;;;40.63;23.60;;;2.30;99.90;;;;;;5031715;28;20360;-88
2022/01/13 01:05:43;;;;;;;40.22;24.35;;;2.30;99.90;;;;;;5030229;28;20021;-88
2022/01/13 01:08:09;;;;;;;44.42;25.13;;;2.20;99.90;;;;;;5031604;28;20935;-89
2022/01/13 01:10:36;;;;;;;39.28;23.35;;;2.20;99.90;;;;;;5029910;28;20052;-89
2022/01/13 01:13:10;;;;;;;42.60;24.45;;;2.20;99.90;;;;;;5030724;28;20506;-89
2022/01/13 01:15:37;;;;;;;40.65;24.80;;;2.20;99.90;;;;;;5031484;28;20494;-88
2022/01/13 01:18:12;;;;;;;46.10;24.63;;;2.20;99.90;;;;;;5028506;28;20029;-88
2022/01/13 01:20:49;;;;;;;41.25;25.27;;;2.20;99.90;;;;;;5029960;28;20025;-88
2022/01/13 01:23:19;;;;;;;39.45;24.88;;;2.20;99.90;;;;;;5028693;28;20025;-89
2022/01/13 01:26:09;;;;;;;44.03;25.52;;;2.20;99.90;;;;;;5032703;28;20034;-89
2022/01/13 01:28:44;;;;;;;44.40;26.08;;;2.20;99.90;;;;;;5029895;28;20017;-88
2022/01/13 01:31:12;;;;;;;45.60;26.15;;;2.20;99.90;;;;;;5030375;28;20082;-88
2022/01/13 01:33:42;;;;;;;50.22;27.35;;;2.30;99.90;;;;;;5027985;28;20060;-88
2022/01/13 01:36:12;;;;;;;46.22;27.13;;;2.30;99.90;;;;;;5029759;28;20037;-88
2022/01/13 01:38:38;;;;;;;46.50;27.55;;;2.30;99.90;;;;;;5029193;28;20032;-88
2022/01/13 01:41:04;;;;;;;48.70;28.02;;;2.30;99.90;;;;;;5029855;28;20926;-88
2022/01/13 01:43:30;;;;;;;45.40;26.15;;;2.30;99.90;;;;;;5032427;28;20604;-89
2022/01/13 01:45:55;;;;;;;50.85;28.52;;;2.30;99.90;;;;;;5032905;28;20036;-88
2022/01/13 01:48:21;;;;;;;48.53;27.63;;;2.40;99.90;;;;;;5029741;28;20018;-87
2022/01/13 01:50:55;;;;;;;49.28;30.08;;;2.30;99.90;;;;;;5031300;28;20033;-88
2022/01/13 01:53:23;;;;;;;50.85;29.20;;;2.30;99.90;;;;;;5029280;28;20037;-88
2022/01/13 01:55:48;;;;;;;51.40;28.88;;;2.30;99.90;;;;;;5029547;28;20187;-88
2022/01/13 01:58:14;;;;;;;49.65;29.77;;;2.30;99.90;;;;;;5031472;28;20167;-88
2022/01/13 02:00:40;;;;;;;49.35;28.92;;;2.30;99.90;;;;;;5028390;28;20032;-88
2022/01/13 02:03:06;;;;;;;51.03;30.33;;;2.30;99.90;;;;;;5029659;28;20038;-88
2022/01/13 02:05:32;;;;;;;50.72;29.48;;;2.30;99.90;;;;;;5030458;28;20025;-88
2022/01/13 02:07:57;;;;;;;47.15;27.95;;;2.30;99.90;;;;;;5030434;28;20477;-88
2022/01/13 02:10:23;;;;;;;60.83;33.90;;;2.30;99.90;;;;;;5028064;28;20017;-88
2022/01/13 02:12:53;;;;;;;48.22;27.13;;;2.30;99.90;;;;;;5029364;28;20506;-88
2022/01/13 02:15:34;;;;;;;46.80;27.00;;;2.30;99.90;;;;;;5030759;28;20490;-88
2022/01/13 02:18:03;;;;;;;53.65;31.08;;;2.30;99.90;;;;;;5029919;28;20371;-88
2022/01/13 02:20:47;;;;;;;48.22;27.95;;;2.30;99.90;;;;;;5028006;28;20543;-89
2022/01/13 02:23:13;;;;;;;53.03;29.05;;;2.20;99.90;;;;;;5029418;28;20029;-89
2022/01/13 02:25:39;;;;;;;53.60;28.20;;;2.20;99.90;;;;;;5030286;28;20075;-88
2022/01/13 02:28:05;;;;;;;54.58;30.70;;;2.20;99.90;;;;;;5033038;28;20060;-89
2022/01/13 02:30:30;;;;;;;53.33;30.23;;;2.20;99.90;;;;;;5033612;28;20078;-88
2022/01/13 02:32:56;;;;;;;58.47;32.08;;;2.20;99.90;;;;;;5031940;28;20061;-88
2022/01/13 02:35:32;;;;;;;53.10;29.35;;;2.10;99.90;;;;;;5033967;28;20021;-88
2022/01/13 02:37:58;;;;;;;51.42;30.95;;;2.20;99.90;;;;;;5033239;28;20040;-88
2022/01/13 02:40:24;;;;;;;54.13;30.92;;;2.20;99.90;;;;;;5034366;28;20022;-88
2022/01/13 02:42:49;;;;;;;61.55;32.22;;;2.20;99.90;;;;;;5032745;28;20029;-88
2022/01/13 02:45:19;;;;;;;56.25;31.70;;;2.30;99.90;;;;;;5031696;28;20026;-88
2022/01/13 02:48:10;;;;;;;53.80;31.13;;;2.30;99.90;;;;;;5034677;28;20107;-88
2022/01/13 02:50:34;;;;;;;54.45;30.33;;;2.30;99.90;;;;;;5032571;28;20108;-88
2022/01/13 02:53:01;;;;;;;53.28;29.92;;;2.30;99.90;;;;;;5031237;28;20175;-89
2022/01/13 02:55:27;;;;;;;53.92;30.52;;;2.30;99.90;;;;;;5034785;28;20022;-88
2022/01/13 02:57:53;;;;;;;54.50;31.05;;;2.20;99.90;;;;;;5032751;28;20033;-88
2022/01/13 03:00:19;;;;;;;52.08;29.63;;;2.30;99.90;;;;;;5032909;28;20124;-89
2022/01/13 03:02:47;;;;;;;52.53;31.60;;;2.30;99.90;;;;;;5030939;28;20029;-89
2022/01/13 03:05:14;;;;;;;55.67;31.23;;;2.30;99.90;;;;;;5032507;28;20028;-89
2022/01/13 03:07:40;;;;;;;53.88;30.35;;;2.30;99.90;;;;;;5030810;28;20037;-88
2022/01/13 03:10:07;;;;;;;56.70;30.77;;;2.30;99.90;;;;;;5032387;28;20026;-88
2022/01/13 03:12:36;;;;;;;54.35;29.40;;;2.30;99.90;;;;;;5040035;28;20096;-88
2022/01/13 03:15:02;;;;;;;55.97;30.55;;;2.30;99.90;;;;;;5034864;28;20048;-88
2022/01/13 03:17:28;;;;;;;48.55;28.27;;;2.20;99.90;;;;;;5030992;28;20025;-88
2022/01/13 03:19:54;;;;;;;53.97;29.73;;;2.20;99.90;;;;;;5033101;28;20021;-89
2022/01/13 03:22:19;;;;;;;50.58;28.98;;;2.20;99.90;;;;;;5032648;28;20064;-89
2022/01/13 03:24:45;;;;;;;50.72;29.20;;;2.20;99.90;;;;;;5032025;28;20021;-88
2022/01/13 03:27:18;;;;;;;52.20;28.98;;;2.20;99.90;;;;;;5030560;28;20029;-89
2022/01/13 03:29:44;;;;;;;53.05;29.10;;;2.20;99.90;;;;;;5032567;28;20021;-88
2022/01/13 03:32:10;;;;;;;55.60;29.80;;;2.20;99.90;;;;;;5032172;28;20048;-88
2022/01/13 03:34:36;;;;;;;54.88;29.40;;;2.20;99.90;;;;;;5032568;28;20041;-89
2022/01/13 03:37:01;;;;;;;54.50;29.67;;;2.20;99.90;;;;;;5033936;28;20112;-89
2022/01/13 03:39:28;;;;;;;50.88;30.08;;;2.20;99.90;;;;;;5034585;28;20207;-88
2022/01/13 03:41:54;;;;;;;51.08;28.95;;;2.20;99.90;;;;;;5030827;28;20025;-89
2022/01/13 03:44:29;;;;;;;56.08;30.77;;;2.20;99.90;;;;;;5034285;28;20348;-88
2022/01/13 03:47:01;;;;;;;51.08;29.23;;;2.30;99.90;;;;;;5031664;28;20057;-89
2022/01/13 03:49:27;;;;;;;53.85;30.40;;;2.30;99.90;;;;;;5032146;28;20026;-88
2022/01/13 03:51:55;;;;;;;50.72;29.75;;;2.30;99.90;;;;;;5032893;28;20112;-88
2022/01/13 03:54:33;;;;;;;55.75;30.58;;;2.20;99.90;;;;;;5034832;28;20111;-88
2022/01/13 03:57:20;;;;;;;53.47;30.08;;;2.20;99.90;;;;;;5030436;28;20030;-88
2022/01/13 04:00:23;;;;;;;52.60;30.20;;;2.20;99.90;;;;;;5032008;28;20520;-88
2022/01/13 04:02:49;;;;;;;56.80;29.48;;;2.20;99.90;;;;;;5033867;28;20109;-88
2022/01/13 04:05:14;;;;;;;53.08;30.38;;;2.20;99.90;;;;;;5031463;28;20541;-89
2022/01/13 04:07:40;;;;;;;57.35;31.30;;;2.20;99.90;;;;;;5030868;28;20150;-88
2022/01/13 04:10:06;;;;;;;56.38;30.00;;;2.20;99.90;;;;;;5029851;28;20052;-88
2022/01/13 04:12:32;;;;;;;55.05;30.45;;;2.20;99.90;;;;;;5029822;28;20124;-88
2022/01/13 04:15:00;;;;;;;100.40;36.17;;;2.20;99.90;;;;;;5032969;28;20060;-88
2022/01/13 04:17:27;;;;;;;54.88;30.83;;;2.10;99.90;;;;;;5036425;28;20078;-88
2022/01/13 04:19:53;;;;;;;56.30;30.58;;;2.20;99.90;;;;;;5035788;28;20021;-88
2022/01/13 04:22:19;;;;;;;54.67;29.67;;;2.20;99.90;;;;;;5031150;28;20022;-89
2022/01/13 04:24:51;;;;;;;54.05;28.73;;;2.20;99.90;;;;;;5034178;28;20609;-88
2022/01/13 04:27:27;;;;;;;55.08;30.20;;;2.10;99.90;;;;;;5032762;28;20486;-89
2022/01/13 04:30:21;;;;;;;54.35;29.15;;;2.20;99.90;;;;;;5029772;28;20090;-88
2022/01/13 04:32:38;;;;;;;52.17;28.92;;;2.10;99.90;;;;;;5031098;28;20516;-89
2022/01/13 04:35:05;;;;;;;54.53;29.75;;;2.10;99.90;;;;;;5029415;28;20055;-88
2022/01/13 04:37:31;;;;;;;50.58;28.08;;;2.10;99.90;;;;;;5030649;28;20035;-89
2022/01/13 04:39:56;;;;;;;55.67;29.23;;;2.10;99.90;;;;;;5031388;28;20112;-89
2022/01/13 04:42:22;;;;;;;51.90;28.75;;;2.20;99.90;;;;;;5031046;28;20466;-88
2022/01/13 04:44:48;;;;;;;56.42;27.45;;;2.10;99.90;;;;;;5026735;28;20528;-89
2022/01/13 04:47:14;;;;;;;54.17;28.90;;;2.10;99.90;;;;;;5032486;28;20026;-88
2022/01/13 04:49:39;;;;;;;54.47;28.15;;;2.10;99.90;;;;;;5029990;28;20524;-89
2022/01/13 04:52:05;;;;;;;53.92;29.48;;;2.10;99.90;;;;;;5030924;28;20104;-88
2022/01/13 04:54:31;;;;;;;54.58;30.30;;;2.20;99.90;;;;;;5029620;28;20050;-89
2022/01/13 04:57:06;;;;;;;57.72;31.40;;;2.20;99.90;;;;;;5032838;28;20025;-89
2022/01/13 04:59:32;;;;;;;55.30;30.65;;;2.10;99.90;;;;;;5029183;28;20025;-90
2022/01/13 05:02:00;;;;;;;56.10;29.80;;;2.10;99.90;;;;;;5032538;28;20496;-88
2022/01/13 05:04:25;;;;;;;55.80;30.15;;;2.10;99.90;;;;;;5030274;28;20100;-88
2022/01/13 05:06:51;;;;;;;59.83;31.65;;;2.20;99.90;;;;;;5028984;28;20171;-88
2022/01/13 05:09:17;;;;;;;58.00;30.20;;;2.10;99.90;;;;;;5030538;28;20021;-88
2022/01/13 05:11:42;;;;;;;58.33;30.67;;;2.10;99.90;;;;;;5029996;28;20109;-88
2022/01/13 05:14:08;;;;;;;58.15;30.42;;;2.10;99.90;;;;;;5030249;28;20553;-89
2022/01/13 05:16:53;;;;;;;56.90;30.13;;;2.10;99.90;;;;;;5030658;28;20026;-88
2022/01/13 05:19:25;;;;;;;54.35;30.23;;;2.10;99.90;;;;;;5030334;28;20029;-88
2022/01/13 05:24:28;;;;;;;61.75;31.67;;;2.10;99.90;;;;;;5030311;28;20030;-88
2022/01/13 05:26:53;;;;;;;62.45;32.10;;;2.10;99.90;;;;;;5028487;28;20152;-89
2022/01/13 05:29:20;;;;;;;56.33;30.38;;;2.10;99.90;;;;;;5030497;28;20148;-88
2022/01/13 05:31:48;;;;;;;57.88;31.50;;;2.00;99.90;;;;;;5030276;28;20025;-88
2022/01/13 05:34:14;;;;;;;58.20;30.95;;;2.00;99.90;;;;;;5029484;28;20048;-88
2022/01/13 05:36:40;;;;;;;56.63;29.90;;;1.90;99.90;;;;;;5030408;28;20033;-89
2022/01/13 05:39:06;;;;;;;55.40;29.27;;;1.90;99.90;;;;;;5031279;28;20030;-89
2022/01/13 05:41:33;;;;;;;53.10;29.30;;;1.90;99.90;;;;;;5023512;28;20100;-88
2022/01/13 05:43:59;;;;;;;58.70;31.67;;;1.90;99.90;;;;;;5028511;28;20140;-88
2022/01/13 05:46:25;;;;;;;53.97;29.92;;;1.90;99.90;;;;;;5029573;28;20104;-88
2022/01/13 05:48:50;;;;;;;57.05;31.15;;;1.90;99.90;;;;;;5029239;28;20440;-88
2022/01/13 05:51:16;;;;;;;55.42;30.25;;;1.90;99.90;;;;;;5029185;28;20029;-90
2022/01/13 05:53:42;;;;;;;56.35;31.27;;;1.80;99.90;;;;;;5031873;28;20154;-89
2022/01/13 05:56:09;;;;;;;54.22;29.25;;;1.90;99.90;;;;;;5031883;28;20069;-89
2022/01/13 05:58:35;;;;;;;55.78;29.58;;;1.80;99.90;;;;;;5029675;28;20067;-89
2022/01/13 06:01:01;;;;;;;55.63;29.92;;;1.80;99.90;;;;;;5033810;28;20431;-89
2022/01/13 06:03:26;;;;;;;62.30;32.30;;;1.80;99.90;;;;;;5035905;28;20032;-89
2022/01/13 06:05:52;;;;;;;57.50;30.38;;;1.90;99.90;;;;;;5032330;28;20419;-88
2022/01/13 06:08:17;;;;;;;63.03;32.13;;;1.80;99.90;;;;;;5029975;28;20098;-89
2022/01/13 06:10:46;;;;;;;62.97;33.63;;;1.90;99.90;;;;;;5033417;28;20518;-89
2022/01/13 06:13:11;;;;;;;62.53;32.45;;;1.90;99.90;;;;;;5032578;28;20124;-89
2022/01/13 06:15:37;;;;;;;84.30;44.28;;;1.90;99.90;;;;;;5033857;28;20109;-89
2022/01/13 06:18:09;;;;;;;108.40;56.97;;;1.80;99.90;;;;;;5039361;28;20083;-89
2022/01/13 06:20:35;;;;;;;74.47;37.90;;;1.80;99.90;;;;;;5043381;28;20028;-89
2022/01/13 06:23:02;;;;;;;81.82;42.13;;;1.80;99.90;;;;;;5042392;28;20025;-90
2022/01/13 06:25:28;;;;;;;86.80;42.95;;;1.80;99.90;;;;;;5036306;28;20229;-89
2022/01/13 06:27:53;;;;;;;77.78;38.58;;;1.80;99.90;;;;;;5042237;28;20033;-89
2022/01/13 06:30:19;;;;;;;92.03;43.10;;;1.80;99.90;;;;;;5032634;28;20494;-89
2022/01/13 06:32:46;;;;;;;93.95;47.13;;;1.90;99.90;;;;;;5032289;28;20111;-89
2022/01/13 06:35:13;;;;;;;94.50;46.00;;;1.90;99.90;;;;;;5038132;28;20021;-88
2022/01/13 06:37:41;;;;;;;70.88;37.33;;;1.80;99.90;;;;;;5033859;28;20085;-89
2022/01/13 06:40:08;;;;;;;62.72;32.38;;;1.80;99.90;;;;;;5034729;28;20028;-89
2022/01/13 06:42:34;;;;;;;63.78;35.13;;;1.80;99.90;;;;;;5034402;28;20034;-89
2022/01/13 06:45:00;;;;;;;62.22;33.15;;;1.80;99.90;;;;;;5033075;28;20076;-89
2022/01/13 06:47:25;;;;;;;60.95;32.90;;;1.80;99.90;;;;;;5035053;28;20026;-89
2022/01/13 06:49:51;;;;;;;104.32;52.70;;;1.80;99.90;;;;;;5035260;28;20443;-91
2022/01/13 06:52:17;;;;;;;57.85;32.45;;;1.80;99.90;;;;;;5032529;28;20747;-90
2022/01/13 06:54:43;;;;;;;70.93;37.42;;;1.80;99.90;;;;;;5032844;28;20505;-90
2022/01/13 06:57:10;;;;;;;99.28;46.95;;;1.80;99.90;;;;;;5028359;28;20038;-90
2022/01/13 06:59:35;;;;;;;86.88;43.47;;;1.80;99.90;;;;;;5033180;28;20111;-90
2022/01/13 07:02:02;;;;;;;66.13;32.80;;;1.80;99.90;;;;;;5031161;28;20494;-90
2022/01/13 07:04:28;;;;;;;83.15;43.63;;;1.70;99.90;;;;;;5032404;28;20105;-87
2022/01/13 07:06:54;;;;;;;148.55;78.18;;;1.80;99.90;;;;;;5031161;28;20030;-86
2022/01/13 07:09:21;;;;;;;76.00;42.95;;;1.70;99.90;;;;;;5031093;28;20447;-87
2022/01/13 07:11:47;;;;;;;77.05;42.83;;;1.70;99.90;;;;;;5031750;28;20491;-87
2022/01/13 07:14:13;;;;;;;74.93;40.65;;;1.70;99.90;;;;;;5032304;28;20505;-86
2022/01/13 07:16:41;;;;;;;84.15;47.08;;;1.70;99.90;;;;;;5030751;28;20025;-86
2022/01/13 07:19:09;;;;;;;94.22;49.17;;;1.70;99.90;;;;;;5030741;28;20071;-87
2022/01/13 07:21:35;;;;;;;75.07;39.17;;;1.70;99.90;;;;;;5031837;28;20022;-87
2022/01/13 07:24:01;;;;;;;76.05;45.47;;;1.70;99.90;;;;;;5032163;28;20056;-86
2022/01/13 07:26:27;;;;;;;84.85;45.28;;;1.70;99.90;;;;;;5032054;28;20021;-86
2022/01/13 07:28:53;;;;;;;103.70;57.03;;;1.80;99.90;;;;;;5030768;28;20075;-86
2022/01/13 07:31:19;;;;;;;72.30;41.42;;;1.80;99.90;;;;;;5032318;28;20025;-86
2022/01/13 07:33:49;;;;;;;77.28;41.42;;;1.70;99.90;;;;;;5032197;28;20091;-86
2022/01/13 07:36:14;;;;;;;88.40;49.92;;;1.70;99.90;;;;;;5031907;28;20216;-86
2022/01/13 07:38:40;;;;;;;67.18;35.72;;;1.80;99.90;;;;;;5030271;28;20188;-86
2022/01/13 07:41:06;;;;;;;64.18;35.10;;;1.80;99.90;;;;;;5030405;28;20025;-86
2022/01/13 07:43:32;;;;;;;65.38;36.97;;;1.80;99.90;;;;;;5031920;28;20386;-86
2022/01/13 07:45:58;;;;;;;62.78;33.20;;;1.80;99.90;;;;;;5031554;28;20037;-86
2022/01/13 07:48:24;;;;;;;60.47;33.83;;;1.90;99.90;;;;;;5031781;28;20061;-87
2022/01/13 07:50:51;;;;;;;56.58;31.63;;;1.90;99.90;;;;;;5031751;28;20050;-86
2022/01/13 07:53:16;;;;;;;64.38;33.80;;;1.90;99.90;;;;;;5031898;28;20367;-86
2022/01/13 07:55:42;;;;;;;58.40;34.72;;;1.90;99.90;;;;;;5030141;28;20021;-87
2022/01/13 07:58:08;;;;;;;57.95;33.08;;;1.80;99.90;;;;;;5031746;28;20041;-87
2022/01/13 08:00:34;;;;;;;60.70;32.63;;;1.80;99.90;;;;;;5029926;28;20021;-87
2022/01/13 08:03:00;;;;;;;65.35;34.70;;;1.80;99.90;;;;;;5031366;28;20041;-87
2022/01/13 08:05:26;;;;;;;63.65;34.42;;;1.80;99.90;;;;;;5029639;28;20032;-87
2022/01/13 08:07:51;;;;;;;60.53;34.00;;;1.80;99.90;;;;;;5031465;28;20041;-87
2022/01/13 08:10:17;;;;;;;58.53;31.80;;;1.80;99.90;;;;;;5031338;28;20504;-87
2022/01/13 08:12:43;;;;;;;57.33;31.38;;;1.90;99.90;;;;;;5030058;28;20065;-87
2022/01/13 08:15:12;;;;;;;55.78;31.38;;;1.80;99.90;;;;;;5030034;28;20272;-87
2022/01/13 08:20:24;;;;;;;60.40;30.40;;;1.90;99.90;;;;;;5030738;28;20116;-87
2022/01/13 08:22:50;;;;;;;66.78;33.08;;;1.90;99.90;;;;;;5030130;28;20026;-87
2022/01/13 08:25:17;;;;;;;63.00;31.77;;;2.00;99.90;;;;;;5030851;28;20090;-86
2022/01/13 08:27:43;;;;;;;54.70;31.42;;;2.00;99.90;;;;;;5030951;28;20075;-87
2022/01/13 08:30:09;;;;;;;58.92;33.03;;;2.00;99.90;;;;;;5031103;28;20025;-87
2022/01/13 08:32:35;;;;;;;70.28;34.08;;;2.10;99.90;;;;;;5029248;28;20033;-87
2022/01/13 08:35:01;;;;;;;72.45;34.83;;;2.10;99.90;;;;;;5029478;28;20033;-86
2022/01/13 08:37:27;;;;;;;62.20;33.53;;;2.10;99.90;;;;;;5029153;28;20018;-87
2022/01/13 08:39:55;;;;;;;57.45;32.90;;;2.20;99.90;;;;;;5029410;28;20056;-87
2022/01/13 08:42:22;;;;;;;63.17;33.92;;;2.20;99.90;;;;;;5029110;28;20397;-87
2022/01/13 08:44:48;;;;;;;63.97;34.92;;;2.30;99.90;;;;;;5030351;28;20029;-87
2022/01/13 08:47:14;;;;;;;60.25;33.88;;;2.30;99.90;;;;;;5029169;28;20030;-87
2022/01/13 08:49:41;;;;;;;66.88;37.40;;;2.40;99.90;;;;;;5029545;28;20573;-86
2022/01/13 08:52:07;;;;;;;58.92;33.33;;;2.40;99.90;;;;;;5028767;28;20056;-87
2022/01/13 08:54:33;;;;;;;55.72;31.17;;;2.50;99.90;;;;;;5030424;28;20057;-86
2022/01/13 08:56:59;;;;;;;60.50;34.78;;;2.50;99.90;;;;;;5030401;28;20490;-86
2022/01/13 08:59:26;;;;;;;59.30;33.53;;;2.50;99.90;;;;;;5030228;28;20089;-87
2022/01/13 09:01:53;;;;;;;58.80;33.70;;;2.60;99.90;;;;;;5030148;28;20083;-86
2022/01/13 09:04:19;;;;;;;58.88;33.58;;;2.60;99.90;;;;;;5030138;28;20138;-87
2022/01/13 09:06:44;;;;;;;55.20;32.00;;;2.50;99.90;;;;;;5029775;28;20076;-87
2022/01/13 09:09:10;;;;;;;57.45;33.15;;;2.50;99.90;;;;;;5030157;28;20029;-87
2022/01/13 09:11:36;;;;;;;51.70;30.75;;;2.50;99.90;;;;;;5028788;28;20029;-87
2022/01/13 09:14:01;;;;;;;52.70;31.20;;;2.50;99.90;;;;;;5028925;28;20053;-87
2022/01/13 09:16:30;;;;;;;57.53;29.65;;;2.50;99.90;;;;;;5028662;28;20049;-87
2022/01/13 09:21:26;;;;;;;60.08;30.05;;;2.60;99.90;;;;;;5029653;28;20018;-87
2022/01/13 09:23:53;;;;;;;56.47;31.92;;;2.60;99.90;;;;;;5028481;28;20071;-87
2022/01/13 09:26:19;;;;;;;62.80;32.95;;;2.70;99.90;;;;;;5028516;28;20406;-87
2022/01/13 09:28:44;;;;;;;49.85;28.90;;;2.80;99.90;;;;;;5028441;28;20040;-87
2022/01/13 09:31:10;;;;;;;49.67;29.92;;;2.80;99.90;;;;;;5029832;28;20167;-87
2022/01/13 09:33:36;;;;;;;46.38;27.88;;;2.90;99.90;;;;;;5029732;28;20045;-87
2022/01/13 09:36:06;;;;;;;49.42;28.27;;;3.00;99.90;;;;;;5027929;28;20164;-87
2022/01/13 09:38:32;;;;;;;49.67;29.33;;;3.00;99.90;;;;;;5028673;28;20390;-87
2022/01/13 09:40:58;;;;;;;46.22;28.77;;;3.10;99.90;;;;;;5029416;28;20030;-87
2022/01/13 09:43:26;;;;;;;51.10;28.60;;;3.10;99.90;;;;;;5029637;28;20032;-86
2022/01/13 09:45:53;;;;;;;44.33;27.75;;;3.20;99.90;;;;;;5029539;28;20021;-87
2022/01/13 09:48:20;;;;;;;45.72;26.70;;;3.30;99.90;;;;;;5029611;28;20147;-87
2022/01/13 09:50:46;;;;;;;46.92;28.13;;;3.30;99.90;;;;;;5028068;28;20026;-87
2022/01/13 09:53:16;;;;;;;43.40;27.17;;;3.40;99.90;;;;;;5029390;28;20029;-87
2022/01/13 09:55:45;;;;;;;51.78;28.02;;;3.40;99.90;;;;;;5028360;28;20057;-87
2022/01/13 09:58:12;;;;;;;48.08;26.42;;;3.50;99.90;;;;;;5029689;28;20057;-87
2022/01/13 10:00:43;;;;;;;47.53;27.27;;;3.60;99.90;;;;;;5028228;28;20045;-87
2022/01/13 10:03:16;;;;;;;46.83;27.52;;;3.70;99.90;;;;;;5028127;28;20037;-87
2022/01/13 10:06:12;;;;;;;44.33;27.02;;;3.70;99.90;;;;;;5029047;28;20033;-87
2022/01/13 10:08:58;;;;;;;45.65;28.20;;;3.80;99.90;;;;;;5028777;28;20045;-88
2022/01/13 10:11:33;;;;;;;45.63;26.48;;;3.80;99.90;;;;;;5029633;28;20029;-87
2022/01/13 10:16:51;;;;;;;40.33;25.55;;;3.90;99.90;;;;;;5029575;28;20111;-88
2022/01/13 10:19:38;;;;;;;45.72;25.73;;;3.90;99.90;;;;;;5028129;28;20029;-88
2022/01/13 10:22:08;;;;;;;39.05;24.70;;;4.00;99.90;;;;;;5027540;28;20490;-88
2022/01/13 10:24:36;;;;;;;43.97;26.05;;;4.00;99.90;;;;;;5029024;28;20479;-87
2022/01/13 10:27:12;;;;;;;41.13;24.70;;;4.00;99.90;;;;;;5029625;28;20014;-88
2022/01/13 10:29:46;;;;;;;38.88;24.38;;;4.10;99.90;;;;;;5029364;28;20371;-88
2022/01/13 10:32:18;;;;;;;39.25;23.40;;;4.20;99.90;;;;;;5027874;28;20057;-88
2022/01/13 10:34:48;;;;;;;38.90;24.48;;;4.20;99.90;;;;;;5027842;28;20537;-88
2022/01/13 10:37:28;;;;;;;39.42;24.45;;;4.20;99.90;;;;;;5028894;28;20022;-88
2022/01/13 10:39:57;;;;;;;39.35;23.65;;;4.30;99.90;;;;;;5029233;28;20075;-87
2022/01/13 10:45:17;;;;;;;40.00;24.42;;;4.50;99.90;;;;;;5029159;28;20034;-87
2022/01/13 10:47:50;;;;;;;39.10;24.45;;;4.50;99.90;;;;;;5031771;28;20018;-87
2022/01/13 10:50:16;;;;;;;40.90;24.17;;;4.60;99.90;;;;;;5032246;28;20105;-88
2022/01/13 10:52:42;;;;;;;38.63;23.75;;;4.60;99.90;;;;;;5032744;28;20455;-87
2022/01/13 10:55:13;;;;;;;36.50;23.00;;;4.70;99.90;;;;;;5032748;28;20041;-87
2022/01/13 10:57:43;;;;;;;40.28;25.02;;;4.80;99.90;;;;;;5032822;28;20025;-88
2022/01/13 11:00:17;;;;;;;38.50;23.77;;;4.80;99.90;;;;;;5032595;28;20494;-87
2022/01/13 11:03:10;;;;;;;36.47;22.58;;;4.90;99.90;;;;;;5032359;28;20403;-87
2022/01/13 11:05:54;;;;;;;37.88;23.65;;;4.90;99.90;;;;;;5030847;28;20112;-87
2022/01/13 11:08:28;;;;;;;40.75;24.65;;;5.00;99.90;;;;;;5032424;28;20025;-87
2022/01/13 11:10:58;;;;;;;40.05;25.52;;;5.20;99.90;;;;;;5032291;28;20025;-87
2022/01/13 11:13:28;;;;;;;39.45;25.55;;;5.20;99.90;;;;;;5031012;28;20045;-87
2022/01/13 11:15:55;;;;;;;36.65;22.98;;;5.30;99.90;;;;;;5032305;28;20022;-87
2022/01/13 11:18:30;;;;;;;35.15;21.73;;;5.40;99.90;;;;;;5036711;28;20091;-87
2022/01/13 11:20:56;;;;;;;35.78;21.38;;;5.40;99.90;;;;;;5030999;28;20018;-87
2022/01/13 11:23:23;;;;;;;34.17;21.70;;;5.40;99.90;;;;;;5030511;28;20040;-87
2022/01/13 11:25:55;;;;;;;30.45;20.45;;;5.40;99.90;;;;;;5032000;28;20089;-87
2022/01/13 11:28:22;;;;;;;38.70;21.65;;;5.50;99.90;;;;;;5030317;28;20037;-87
2022/01/13 11:30:51;;;;;;;30.65;20.38;;;5.60;99.90;;;;;;5030673;28;20017;-87
2022/01/13 11:33:19;;;;;;;35.20;20.90;;;5.70;99.90;;;;;;5030396;28;20561;-86
2022/01/13 11:35:50;;;;;;;36.63;22.02;;;5.70;99.90;;;;;;5035084;28;20032;-87
2022/01/13 11:38:18;;;;;;;50.30;26.67;;;5.70;99.90;;;;;;5031913;28;20022;-87
2022/01/13 11:40:58;;;;;;;37.60;22.40;;;5.80;99.90;;;;;;5024259;28;20108;-87
2022/01/13 11:43:26;;;;;;;42.65;24.48;;;5.90;99.90;;;;;;5030207;28;20033;-88
2022/01/13 11:45:52;;;;;;;38.72;24.30;;;6.00;99.90;;;;;;5031816;28;20433;-87
2022/01/13 11:48:25;;;;;;;34.22;21.58;;;6.10;99.90;;;;;;5031658;28;20046;-87
2022/01/13 11:51:13;;;;;;;33.13;19.97;;;6.20;99.90;;;;;;5030109;28;20124;-87
2022/01/13 11:53:41;;;;;;;32.08;19.65;;;6.10;99.90;;;;;;5031468;28;20284;-87
2022/01/13 11:56:08;;;;;;;27.98;18.70;;;6.20;99.90;;;;;;5030437;28;20116;-87
2022/01/13 11:58:42;;;;;;;35.05;20.85;;;6.20;99.90;;;;;;5031236;28;20026;-87
2022/01/13 12:01:38;;;;;;;26.58;18.90;;;6.30;99.90;;;;;;5031748;28;20248;-87
2022/01/13 12:04:07;;;;;;;30.88;18.90;;;6.40;99.90;;;;;;5031230;28;20031;-87
2022/01/13 12:06:36;;;;;;;30.25;18.30;;;6.50;99.90;;;;;;5030744;28;20029;-87
2022/01/13 12:09:07;;;;;;;32.42;19.35;;;6.50;99.90;;;;;;5029906;28;20064;-87
2022/01/13 12:11:39;;;;;;;27.02;18.52;;;6.60;99.90;;;;;;5030062;28;20277;-87
2022/01/13 12:14:34;;;;;;;26.80;18.15;;;6.70;99.90;;;;;;5031240;28;20029;-87
2022/01/13 12:17:22;;;;;;;28.77;18.88;;;6.70;99.90;;;;;;5021393;28;20042;-87
2022/01/13 12:19:50;;;;;;;25.77;16.92;;;6.80;99.90;;;;;;5031110;28;20029;-87
2022/01/13 12:22:36;;;;;;;25.48;17.15;;;6.90;99.90;;;;;;5030679;28;20071;-87
2022/01/13 12:25:04;;;;;;;28.00;17.17;;;6.90;99.90;;;;;;5030812;28;20490;-87
2022/01/13 12:27:39;;;;;;;27.58;17.45;;;7.00;99.90;;;;;;5031036;28;20060;-87
2022/01/13 12:30:05;;;;;;;27.30;17.38;;;7.00;99.90;;;;;;5030918;28;20108;-87
2022/01/13 12:32:41;;;;;;;27.23;16.83;;;7.10;99.90;;;;;;5029414;28;20136;-87
2022/01/13 12:35:10;;;;;;;24.70;16.42;;;7.10;99.90;;;;;;5030730;28;20041;-88
2022/01/13 12:37:39;;;;;;;25.13;16.42;;;7.20;99.90;;;;;;5029513;28;20029;-88
2022/01/13 12:40:39;;;;;;;24.58;15.60;;;7.30;99.90;;;;;;5030779;28;20021;-88
2022/01/13 12:46:08;;;;;;;20.88;14.30;;;7.50;99.90;;;;;;5028330;28;20402;-87
2022/01/13 12:48:35;;;;;;;26.77;15.27;;;7.60;99.90;;;;;;5030537;28;20036;-87
2022/01/13 12:51:01;;;;;;;23.30;14.93;;;7.60;99.90;;;;;;5030060;28;20022;-87
2022/01/13 12:53:30;;;;;;;25.33;15.45;;;7.60;99.90;;;;;;5028825;28;20053;-88
2022/01/13 12:56:08;;;;;;;23.67;15.70;;;7.70;99.90;;;;;;5030462;28;20438;-88
2022/01/13 12:58:40;;;;;;;28.40;16.92;;;7.70;99.90;;;;;;5029158;28;20739;-88
2022/01/13 13:01:10;;;;;;;26.15;17.48;;;7.80;99.90;;;;;;5030453;28;20013;-88
2022/01/13 13:03:37;;;;;;;26.55;17.17;;;7.80;99.90;;;;;;5028762;28;20037;-87
2022/01/13 13:06:14;;;;;;;23.35;15.93;;;7.80;99.90;;;;;;5029683;28;20024;-88